Timeline UpdatesTrip UpdatesNews PostsPvt PostsTravel TipsAdmin PostsConv PostsFollowed PostsChat RequestsBlog PostsPNR Posts

Disclaimer
Search
 
 
Tue Sep 30, 2014 23:27:45 ISTHomeTrainsΣChainsAtlasPNRForumGalleryNewsFAQTripsMembersLoginFeedback
No Recent News for this Train
Other Trains in the News **new
Latest...
⇐ Return Journey: Train# 55022

55021/Samastipur Siwan InterCity Fast Passenger (UnReserved)

Time-Table HAS CHANGED.
Sep 12 (8:04PM)
Change Departure Station:
Change Arrival Station:
Post a Train Travel TipPost a Train Travel Tip **new
Post a Comment/Question/Picture/VideoPost a Comment/Question/Picture/Video
Pantry/Catering
???
RSA - Rake Sharing
Rake/Coach Composition
Loco
News    PNR    Forum    Time-Table    Availability    Fare Chart    Map    Arr/Dep History    Trips    Gallery    ΣChains    X/O    Timeline    
Travel Time: 3h 30m    17 halts    Distance: 106 km    Avg Speed: 30 km/hr
Type: Passenger
Zone: NER/North Eastern
Departs @ 16:00 (Avg 1m late)
Platform# ???
SMTWTFS
Samastipur Junction/SPJ 
Arrives @ 19:30 (Avg 55m late)
Platform# 1
SMTWTFS
Hajipur Junction/HJP 

17 halts. 18 intermediate Stations between Samastipur Junction and Hajipur Junction

Show ALL intermediate Stations  Show Old Time-Table

#CodeStation NameX/OArrivesAvgDepartsAvgHaltPFDay#KmSpeedElevZoneAddress
1SPJSamastipur Junction (9)»  -16:00+1--10.04255mECRSamastipur, Bihar
2KPGMKarpurigram (3)X  16:09+2416:10+251m--16.34951mECRState Highway 49, Bihar
3KRBPKhudiram B Pusa (2)  16:19+1816:20+281m--113.64052mECRDistt. Samastipur, Bihar
4DUBHDubaha (2)X  16:31+4016:32+401m--121.04055mECRDubha Station, Bihar
5DOLDholi (2)X  16:41+4216:42+481m--127.046 ECRDistt. Muzaffarpur, Bihar
6SIHOSiho (2)  16:51+5016:52+511m--133.85253mECRNational Highway 28, Bihar
7SLTSilaut (2)  17:01+4817:02+481m--141.63857mECRMuzaffarpur, Bihar
8NRPANarayanpur Anant (3)X  17:11+4917:12+501m--147.32256mECRMuzaffarpur, Bihar
9MFPMuzaffarpur Junction (6)X  17:25+4117:35+4110m4152.13657mECRMuzaffarpur, Bihar
10RDRam Dayalu Nagar (3)  17:45+1:0117:46+1:241m--158.24256mECRMuzaffarpur, Bihar
11TURTurki (2)  17:57+1:3017:58+1:311m--165.94855mECRTurki, Bihar
12KHIKurhani (2)XO  18:06+1:3118:07+1:341m--172.21756mECRKurhani, Bihar
13GRLGoraul (2)  18:30 18:27+2918:31 18:28+291m2178.01757mECRVAISHALI, Bihar
14BNPTBenipatti Pirapur (1)X  18:38 18:35-18:39 18:36-1m1179.95555mECRGhojaul Rd, Bihar
15BNRBhagwanpur (2)  18:46 18:43+1:2718:47 18:48+1:431 5m2186.34760mECRBhagwanpur, Bihar
16BTHLBithauli (1)  18:57 18:54-18:58 18:55-1m1191.04458mECRVaishali, Bihar
17SAISarai (1)X  19:03 19:01+1:0619:04 19:05+1:151 4m1195.32354mECRVaishali, Bihar
18GWHGhoshawar (1)  19:18 19:21-19:19 19:22-1m11101.43454mECRDaulatpur Deoria urf Daulatpur, Bihar
19HJPHajipur Junction (3)•  19:28 19:30+5519:33 19:35+575m11106.03355mECR06224-272230, Bihar
20SEESonpur Junction (4)X  19:43 19:45+5819:48 19:50+575m--1111.55756mECRSaran, Bihar
21PMUParmanandpur (2)  19:57+1:5719:58+1:581m--1118.14756mECRNational Highway 19, Bihar
22NYONayagaon (2)  20:04+2:0020:05+2:011m--1122.85153mECRNayagaon Sarai, Bihar
23STLRSitalpur (2)X  20:14+2:0220:15+2:051m--1130.42557mECRSitalpur, Bihar
24DGADighwara (2)O  20:28 20:25+2:0020:29 20:30+2:201 5m--1134.61860mECR06158-281240, Bihar
25ATNRAwatarnagar (2)  20:39 20:50-20:40 20:51-1m--1140.53256mECRNH 19, Bihar
26PPDAPanchpatia Deoria Halt (1)  20:49 20:55-20:50 20:56-1m11142.62157mECRNH 19, Bihar
27BAGLBaragopal (2)X  21:04+2:0721:05+2:171m--1145.44157mECRSH 46, Bihar
28DRIDumri Juara (2)  21:11-21:12-1m--1149.57157mECRSaran, Bihar
29GJHGoldinganj (2)X  21:16+2:2321:17+2:321m--1154.34958mECRChapra Patna Highway, Bihar
30CIChhapra Kacheri (3)  21:28+2:3221:30+2:482m--1163.32557mNERChhapra, Bihar
31CPRChhapra Junction (6)  21:35+1:0921:45+1:1010m--1165.53758mNERDistt: Saran, Bihar
32TKVRTeknewas (2)  21:52+3:0621:53+3:071m--1169.86358mNERSaran, Bihar
33KPSKopa Samhota (2)  21:59+2:3722:00+2:371m--1176.16569mNERKopa Samhota Station Rd, Bihar
34DDPDaudpur (2)  22:08+3:1222:09+3:131m--1184.76559mNERChhapra, Bihar
35EKMAEkma (3)  22:17+3:1322:18+3:131m--1193.46464mNERSaran, Bihar
36MHRNMahendranath Halt (2)  22:23-22:24-1m--1198.73063mNERMahendrana, Uttar Pradesh
37CWChainwa (2)  22:28+3:1422:29+3:151m--1200.73863mNERSiwan, Bihar
38DDADuraundha Junction (3)  22:42+2:4222:43+2:421m--1208.94764mNERDistt: Siwan, Bihar
39PCKPachrukhi (2)  22:55+2:5722:56+3:101m--1218.32167mNERPachrukhi, Bihar
40SVSiwan Junction (4)  23:10 23:20+1:37---1226.7-70mNERSiwan, Bihar
Scroll to Top
Scroll to Bottom